Time;durP1;ratioP1;P1;durP2;ratioP2;P2;SDS_P1;SDS_P2;PMS_P1;PMS_P2;Temp;Humidity;BMP_temperature;BMP_pressure;BME280_temperature;BME280_humidity;BME280_pressure;Samples;Min_cycle;Max_cycle;Signal;HPM_P1;HPM_P2
2022/02/13 00:00:09;;;;;;;22.88;11.75;;;;;;;1.07;72.21;95026.84;4987640;28;20070;-77
2022/02/13 00:02:35;;;;;;;19.58;10.55;;;;;;;1.13;72.05;95049.53;4982725;28;20192;-77
2022/02/13 00:05:01;;;;;;;18.63;10.95;;;;;;;0.82;71.78;95011.28;4969502;28;20050;-77
2022/02/13 00:07:27;;;;;;;14.85;9.55;;;;;;;1.09;71.93;95049.16;4988494;28;20045;-77
2022/02/13 00:09:53;;;;;;;18.90;10.38;;;;;;;1.09;72.17;95045.75;4979383;28;20038;-77
2022/02/13 00:12:18;;;;;;;20.35;10.70;;;;;;;1.12;71.69;95051.38;4979238;28;20133;-77
2022/02/13 00:14:44;;;;;;;15.52;9.73;;;;;;;0.89;71.92;95032.16;4983341;28;20030;-77
2022/02/13 00:17:10;;;;;;;18.33;9.40;;;;;;;0.76;71.72;95052.25;4979059;28;20030;-78
2022/02/13 00:19:35;;;;;;;16.95;9.13;;;;;;;0.93;71.22;95041.16;4984465;28;20564;-77
2022/02/13 00:22:00;;;;;;;11.88;7.43;;;;;;;0.91;70.74;95048.44;4981597;28;20060;-78
2022/02/13 00:24:26;;;;;;;18.75;10.40;;;;;;;0.72;70.72;95027.53;4976543;28;20034;-76
2022/02/13 00:26:51;;;;;;;15.48;8.98;;;;;;;0.67;71.00;95048.34;4977660;28;20040;-77
2022/02/13 00:29:17;;;;;;;15.23;8.75;;;;;;;0.68;70.67;95039.47;4976099;28;20023;-77
2022/02/13 00:31:42;;;;;;;14.63;8.25;;;;;;;0.63;70.58;95021.03;4997276;28;20524;-77
2022/02/13 00:34:08;;;;;;;14.43;8.27;;;;;;;0.66;70.50;95036.28;4979416;28;20041;-77
2022/02/13 00:36:33;;;;;;;15.95;10.27;;;;;;;0.49;70.50;95030.06;4992806;28;20120;-76
2022/02/13 00:38:59;;;;;;;15.32;7.95;;;;;;;0.41;71.01;95026.94;4977142;28;20771;-77
2022/02/13 00:41:25;;;;;;;17.10;8.88;;;;;;;0.59;70.94;95040.00;4988434;28;20021;-76
2022/02/13 00:43:50;;;;;;;16.65;8.98;;;;;;;0.40;70.52;95007.81;4984435;28;20049;-77
2022/02/13 00:46:16;;;;;;;14.40;8.98;;;;;;;0.58;70.33;95026.13;4973087;28;20707;-77
2022/02/13 00:48:41;;;;;;;20.73;9.93;;;;;;;0.55;69.99;95029.16;4978073;28;20042;-77
2022/02/13 00:51:07;;;;;;;13.80;7.78;;;;;;;0.61;69.85;95037.94;4975572;28;20038;-77
2022/02/13 00:53:32;;;;;;;19.40;9.68;;;;;;;0.44;70.02;95016.03;4987259;28;20053;-77
2022/02/13 00:55:57;;;;;;;15.93;9.93;;;;;;;0.71;69.52;95036.41;4979837;28;20089;-77
2022/02/13 00:58:25;;;;;;;15.55;7.45;;;;;;;0.52;69.75;95040.09;4971320;28;20030;-77
2022/02/13 01:00:52;;;;;;;18.13;9.73;;;;;;;0.52;69.81;95045.31;4975381;28;20104;-77
2022/02/13 01:03:18;;;;;;;13.63;9.05;;;;;;;0.42;69.20;95018.06;4982237;28;20041;-77
2022/02/13 01:05:43;;;;;;;14.10;8.20;;;;;;;0.46;69.23;95033.09;4989573;28;20113;-77
2022/02/13 01:08:08;;;;;;;11.93;7.43;;;;;;;0.30;68.61;95025.88;4975723;28;20025;-78
2022/02/13 01:10:34;;;;;;;9.55;6.78;;;;;;;0.29;68.35;95037.34;4982196;28;20404;-77
2022/02/13 01:13:01;;;;;;;10.63;6.97;;;;;;;-0.00;68.33;94998.84;4980239;28;20037;-77
2022/02/13 01:15:26;;;;;;;9.93;6.53;;;;;;;-0.00;68.31;94998.84;4979948;28;20494;-77
2022/02/13 01:17:52;;;;;;;8.18;6.20;;;;;;;0.08;68.52;95007.19;4977116;28;20315;-77
2022/02/13 01:20:17;;;;;;;15.38;8.23;;;;;;;-0.03;68.83;95021.00;4988147;28;20036;-77
2022/02/13 01:22:43;;;;;;;16.83;6.50;;;;;;;-0.10;68.80;95021.06;4979483;28;20468;-77
2022/02/13 01:25:08;;;;;;;11.40;6.95;;;;;;;-0.13;69.15;95005.81;4982028;28;20045;-76
2022/02/13 01:27:34;;;;;;;9.93;6.53;;;;;;;-0.17;69.08;95027.38;4980233;28;20050;-77
2022/02/13 01:29:59;;;;;;;11.02;6.32;;;;;;;-0.22;69.28;95007.09;4974470;28;20026;-77
2022/02/13 01:32:24;;;;;;;13.30;7.18;;;;;;;-0.24;69.21;95008.34;4982625;28;20125;-77
2022/02/13 01:34:50;;;;;;;12.30;7.00;;;;;;;-0.43;69.34;94989.22;4980992;28;20045;-76
2022/02/13 01:37:15;;;;;;;12.70;7.63;;;;;;;-0.56;69.58;94963.22;4983718;28;20030;-77
2022/02/13 01:39:41;;;;;;;10.15;7.65;;;;;;;-0.41;69.67;94986.38;4978955;28;21159;-76
2022/02/13 01:42:09;;;;;;;11.73;7.93;;;;;;;-0.54;69.81;94982.09;4980920;28;20034;-78
2022/02/13 01:44:35;;;;;;;11.05;7.05;;;;;;;-0.48;70.34;94981.22;4999253;28;20065;-77
2022/02/13 01:47:02;;;;;;;13.73;8.45;;;;;;;-0.45;69.97;94959.88;5000929;28;20030;-77
2022/02/13 01:49:28;;;;;;;12.30;8.18;;;;;;;-0.43;69.75;94972.75;4986035;28;20034;-76
2022/02/13 01:51:56;;;;;;;12.13;7.93;;;;;;;-0.59;69.89;94940.13;4979109;28;20040;-77
2022/02/13 01:54:22;;;;;;;10.25;7.13;;;;;;;-0.33;69.80;94973.81;4978418;28;20543;-76
2022/02/13 01:56:47;;;;;;;12.63;7.25;;;;;;;-0.61;70.08;94940.34;4982281;28;20034;-77
2022/02/13 01:59:13;;;;;;;11.27;7.60;;;;;;;-0.64;70.07;94955.66;4982930;28;20028;-77
2022/02/13 02:01:40;;;;;;;10.82;6.85;;;;;;;-0.49;70.54;94971.81;4981874;28;20053;-78
2022/02/13 02:04:05;;;;;;;16.15;7.63;;;;;;;-0.54;70.36;94966.41;4989914;28;20517;-77
2022/02/13 02:06:31;;;;;;;12.73;7.97;;;;;;;-0.53;70.44;94962.75;4990329;28;20077;-77
2022/02/13 02:08:56;;;;;;;11.73;7.65;;;;;;;-0.55;70.63;94980.50;4978379;28;20034;-77
2022/02/13 02:11:22;;;;;;;10.95;7.53;;;;;;;-0.62;70.33;94957.03;4982601;28;20054;-77
2022/02/13 02:13:47;;;;;;;15.20;8.00;;;;;;;-0.69;70.08;94945.84;4986865;28;20418;-77
2022/02/13 02:16:12;;;;;;;10.10;6.72;;;;;;;-0.50;70.15;94959.75;4983594;28;20065;-76
2022/02/13 02:18:38;;;;;;;12.90;8.75;;;;;;;-0.63;70.17;94978.16;4984495;28;20036;-77
2022/02/13 02:21:04;;;;;;;12.68;7.10;;;;;;;-0.53;69.66;94984.47;4991621;28;20056;-78
2022/02/13 02:23:32;;;;;;;10.45;6.85;;;;;;;-0.68;66.87;94954.50;4976970;28;20763;-77
2022/02/13 02:25:57;;;;;;;10.48;6.03;;;;;;;-0.48;65.36;94962.16;4980795;28;20037;-77
2022/02/13 02:28:22;;;;;;;11.75;6.25;;;;;;;-0.66;64.00;94957.69;4979466;28;21349;-77
2022/02/13 02:30:48;;;;;;;9.52;5.70;;;;;;;-0.69;65.17;94943.25;4985262;28;20476;-76
2022/02/13 02:33:14;;;;;;;10.32;6.90;;;;;;;-0.68;65.01;94950.03;4978908;28;20045;-76
2022/02/13 02:35:40;;;;;;;10.50;6.88;;;;;;;-0.60;64.78;94956.81;4970097;28;20567;-77
2022/02/13 02:38:05;;;;;;;11.68;6.82;;;;;;;-0.35;64.10;94988.94;4980596;28;20598;-77
2022/02/13 02:40:31;;;;;;;9.02;5.15;;;;;;;-0.55;63.23;94968.22;4980580;28;20543;-77
2022/02/13 02:42:56;;;;;;;8.35;5.45;;;;;;;-0.31;61.13;94971.00;4981780;28;20033;-77
2022/02/13 02:45:22;;;;;;;10.80;5.60;;;;;;;-0.31;60.04;94987.50;4991013;28;20041;-77
2022/02/13 02:47:47;;;;;;;8.30;5.25;;;;;;;-0.44;58.85;94956.28;4979323;28;20456;-77
2022/02/13 02:50:14;;;;;;;7.18;4.00;;;;;;;-0.19;58.32;94990.97;4986744;28;20516;-77
2022/02/13 02:52:39;;;;;;;5.80;4.03;;;;;;;-0.31;56.05;94986.69;4983852;28;20133;-78
2022/02/13 02:55:06;;;;;;;7.35;3.55;;;;;;;-0.17;55.20;94991.56;4981185;28;20481;-76
2022/02/13 02:57:32;;;;;;;7.68;3.72;;;;;;;-0.27;54.11;94978.19;4983377;28;20127;-77
2022/02/13 02:59:58;;;;;;;10.10;3.85;;;;;;;-0.20;54.08;94988.59;4983861;28;20492;-77
2022/02/13 03:02:24;;;;;;;5.32;4.13;;;;;;;-0.30;54.06;94983.88;4988154;28;20026;-77
2022/02/13 03:04:50;;;;;;;8.02;4.28;;;;;;;-0.26;53.78;94990.25;4981605;28;20180;-77
2022/02/13 03:07:15;;;;;;;4.97;3.75;;;;;;;-0.36;53.52;94963.81;4988014;28;20041;-77
2022/02/13 03:09:41;;;;;;;6.90;3.47;;;;;;;-0.14;53.74;94998.97;4981664;28;20172;-77
2022/02/13 03:12:06;;;;;;;5.63;3.75;;;;;;;-0.64;53.17;94922.50;4976329;28;20125;-77
2022/02/13 03:14:32;;;;;;;7.00;4.78;;;;;;;-0.45;53.15;94946.03;4982994;28;20025;-77
2022/02/13 03:16:57;;;;;;;6.03;4.18;;;;;;;-0.21;52.51;94979.94;4983139;28;20073;-77
2022/02/13 03:19:23;;;;;;;4.80;2.97;;;;;;;-0.09;52.16;95003.53;4985449;28;20401;-77
2022/02/13 03:21:48;;;;;;;4.65;3.17;;;;;;;-0.09;51.71;94996.50;4987112;28;20063;-77
2022/02/13 03:24:14;;;;;;;6.43;3.13;;;;;;;-0.09;50.94;94998.31;4980959;28;20442;-77
2022/02/13 03:26:39;;;;;;;7.95;2.53;;;;;;;-0.21;50.51;94987.78;4980966;28;20038;-77
2022/02/13 03:29:05;;;;;;;5.88;3.20;;;;;;;-0.14;49.65;95004.19;4980481;28;20088;-78
2022/02/13 03:31:30;;;;;;;2.78;2.53;;;;;;;-0.38;50.37;94975.50;4989701;28;20489;-77
2022/02/13 03:33:55;;;;;;;3.53;2.53;;;;;;;-0.30;50.08;94981.25;4983879;28;20125;-77
2022/02/13 03:36:21;;;;;;;4.20;1.92;;;;;;;-0.23;50.12;95000.28;4979668;28;20077;-77
2022/02/13 03:38:46;;;;;;;3.22;2.42;;;;;;;-0.27;49.92;94991.28;4980928;28;20116;-78
2022/02/13 03:41:12;;;;;;;3.97;2.45;;;;;;;-0.16;49.65;95011.47;4988387;28;20496;-77
2022/02/13 03:43:38;;;;;;;7.10;2.35;;;;;;;-0.24;49.50;95003.91;4977983;28;20385;-78
2022/02/13 03:46:03;;;;;;;2.58;2.20;;;;;;;-0.42;49.62;94979.56;4982195;28;20109;-77
2022/02/13 03:48:28;;;;;;;5.45;2.80;;;;;;;-0.44;49.33;94977.19;4980296;28;20141;-77
2022/02/13 03:50:54;;;;;;;4.82;2.67;;;;;;;-0.21;49.44;95002.69;4980401;28;20707;-76
2022/02/13 03:53:19;;;;;;;7.05;2.50;;;;;;;-0.34;48.99;94987.94;4971411;28;20232;-77
2022/02/13 03:55:45;;;;;;;4.60;2.63;;;;;;;-0.32;49.50;94980.66;4984660;28;20129;-77
2022/02/13 03:58:10;;;;;;;4.22;2.53;;;;;;;-0.50;49.64;94972.81;4969133;28;20045;-78
2022/02/13 04:00:35;;;;;;;6.10;2.63;;;;;;;-0.36;49.74;94992.56;4986661;28;20522;-77
2022/02/13 04:03:01;;;;;;;3.95;2.63;;;;;;;-0.43;50.01;94981.38;4996869;28;20053;-76
2022/02/13 04:05:27;;;;;;;4.20;3.17;;;;;;;-0.19;49.75;94996.19;5000665;28;20073;-77
2022/02/13 04:07:52;;;;;;;6.43;2.63;;;;;;;-0.48;49.42;94976.00;5002015;28;20545;-76
2022/02/13 04:10:18;;;;;;;2.55;2.00;;;;;;;-0.43;49.67;94997.06;4998419;28;20036;-76
2022/02/13 04:12:43;;;;;;;3.70;2.75;;;;;;;-0.32;49.57;95001.56;5002936;28;20036;-77
2022/02/13 04:15:10;;;;;;;3.90;2.85;;;;;;;-0.38;49.54;95001.63;5001395;28;20478;-77
2022/02/13 04:17:35;;;;;;;3.42;2.42;;;;;;;-0.34;50.05;95000.22;4997263;28;20487;-77
2022/02/13 04:20:01;;;;;;;3.35;2.88;;;;;;;-0.56;50.34;94992.75;5007767;28;20029;-77
2022/02/13 04:22:26;;;;;;;5.32;2.88;;;;;;;-0.53;50.13;94989.69;4997125;28;20783;-77
2022/02/13 04:24:52;;;;;;;5.90;3.08;;;;;;;-0.40;50.26;95014.13;4999264;28;20059;-77
2022/02/13 04:27:18;;;;;;;8.30;2.70;;;;;;;-0.69;50.80;94984.25;5003525;28;20260;-76
2022/02/13 04:29:43;;;;;;;7.68;3.22;;;;;;;-0.58;51.34;95007.06;5003468;28;20025;-76
2022/02/13 04:32:08;;;;;;;4.95;2.58;;;;;;;-0.65;51.76;95003.69;5004179;28;20557;-77
2022/02/13 04:34:34;;;;;;;5.32;3.42;;;;;;;-0.64;51.74;95000.06;5004238;28;20579;-77
2022/02/13 04:36:59;;;;;;;4.07;2.78;;;;;;;-0.62;52.01;94996.22;5000407;28;20033;-76
2022/02/13 04:39:25;;;;;;;4.60;2.88;;;;;;;-0.54;52.35;95018.69;4998665;28;20835;-76
2022/02/13 04:41:50;;;;;;;4.63;2.85;;;;;;;-0.85;52.83;94980.34;4997896;28;20045;-77
2022/02/13 04:44:15;;;;;;;6.93;3.50;;;;;;;-0.80;53.25;94983.13;5010364;28;20086;-77
2022/02/13 04:46:41;;;;;;;4.63;3.03;;;;;;;-0.71;54.07;95001.94;4999407;28;20036;-77
2022/02/13 04:49:06;;;;;;;5.35;3.10;;;;;;;-1.22;54.44;94942.91;4996199;28;20523;-77
2022/02/13 04:51:32;;;;;;;5.72;3.10;;;;;;;-0.70;54.93;95001.72;5018940;28;20045;-77
2022/02/13 04:53:57;;;;;;;4.50;3.45;;;;;;;-0.91;55.20;94996.06;4995760;28;21291;-77
2022/02/13 04:56:22;;;;;;;4.22;3.50;;;;;;;-0.93;55.37;94990.28;5005583;28;20029;-77
2022/02/13 04:58:48;;;;;;;5.57;3.47;;;;;;;-0.85;56.02;95000.44;5001362;28;20053;-77
2022/02/13 05:01:13;;;;;;;5.85;3.42;;;;;;;-1.00;56.34;94972.03;5003284;28;20037;-77
2022/02/13 05:03:39;;;;;;;4.78;3.55;;;;;;;-0.83;56.68;94998.44;5003299;28;20037;-78
2022/02/13 05:06:05;;;;;;;4.80;3.65;;;;;;;-0.98;57.36;95001.34;5001070;28;20053;-77
2022/02/13 05:08:31;;;;;;;5.60;3.72;;;;;;;-0.97;57.64;94993.28;5006672;28;20141;-76
2022/02/13 05:10:56;;;;;;;4.60;3.70;;;;;;;-0.91;58.12;95001.28;5000644;28;20044;-77
2022/02/13 05:13:21;;;;;;;5.90;3.83;;;;;;;-1.16;58.38;94973.34;4999561;28;20060;-77
2022/02/13 05:15:47;;;;;;;4.55;3.30;;;;;;;-1.04;58.77;94994.38;4989209;28;20030;-76
2022/02/13 05:18:12;;;;;;;5.93;3.65;;;;;;;-0.97;59.27;95001.13;4973604;28;20054;-77
2022/02/13 05:20:38;;;;;;;4.60;3.92;;;;;;;-0.88;59.45;95004.28;4980012;28;20153;-77
2022/02/13 05:23:03;;;;;;;5.85;4.22;;;;;;;-1.04;59.62;94989.94;4984232;28;20524;-77
2022/02/13 05:25:28;;;;;;;6.78;4.97;;;;;;;-1.09;59.95;94984.56;4985535;28;20076;-77
2022/02/13 05:27:54;;;;;;;8.63;4.75;;;;;;;-1.09;60.42;95002.84;4984633;28;20492;-77
2022/02/13 05:30:19;;;;;;;6.97;4.25;;;;;;;-1.25;60.82;94979.84;4984225;28;20511;-76
2022/02/13 05:32:45;;;;;;;10.00;5.85;;;;;;;-1.48;61.31;94962.13;4984321;28;20523;-77
2022/02/13 05:35:10;;;;;;;7.70;4.50;;;;;;;-1.59;61.38;94941.13;4981533;28;20169;-77
2022/02/13 05:37:38;;;;;;;7.57;4.78;;;;;;;-1.20;61.74;95019.16;4984198;28;20057;-77
2022/02/13 05:40:05;;;;;;;5.75;4.43;;;;;;;-1.43;61.79;94966.72;4981617;28;20393;-76
2022/02/13 05:42:30;;;;;;;6.68;4.53;;;;;;;-1.10;62.23;95024.72;4976671;28;20045;-76
2022/02/13 05:44:55;;;;;;;6.15;3.78;;;;;;;-1.32;62.16;94984.31;4984942;28;20026;-77
2022/02/13 05:47:21;;;;;;;9.75;4.78;;;;;;;-1.10;62.38;95014.28;4982395;28;20023;-77
2022/02/13 05:49:47;;;;;;;10.27;5.43;;;;;;;-1.09;62.37;95028.16;4981090;28;21004;-76
2022/02/13 05:52:13;;;;;;;8.05;5.07;;;;;;;-1.06;62.61;95025.91;4981996;28;20208;-76
2022/02/13 05:54:39;;;;;;;10.80;4.75;;;;;;;-1.16;62.73;95001.25;4983175;28;20052;-77
2022/02/13 05:57:05;;;;;;;7.22;5.07;;;;;;;-0.98;63.05;95030.88;4980918;28;20492;-77
2022/02/13 05:59:30;;;;;;;7.68;5.22;;;;;;;-1.20;63.11;95006.13;4998847;28;20014;-76
2022/02/13 06:01:56;;;;;;;5.25;4.28;;;;;;;-1.01;63.84;95044.34;5000331;28;20080;-76
2022/02/13 06:04:22;;;;;;;6.20;4.57;;;;;;;-1.26;64.46;95000.94;4999737;28;20148;-76
2022/02/13 06:06:53;;;;;;;6.50;4.88;;;;;;;-1.09;65.16;95036.78;4996116;28;20050;-77
2022/02/13 06:09:19;;;;;;;11.55;5.70;;;;;;;-1.21;66.06;95030.63;4992433;28;20042;-78
2022/02/13 06:11:44;;;;;;;11.82;6.18;;;;;;;-1.34;66.29;95027.28;4998546;28;20025;-76
2022/02/13 06:14:11;;;;;;;6.95;5.18;;;;;;;-1.28;66.50;95029.88;4999712;28;20112;-76
2022/02/13 06:16:36;;;;;;;6.10;5.03;;;;;;;-1.17;66.71;95039.66;4996579;28;20040;-77
2022/02/13 06:19:02;;;;;;;11.82;6.85;;;;;;;-1.23;67.05;95043.09;5002245;28;20045;-76
2022/02/13 06:21:27;;;;;;;9.35;5.72;;;;;;;-1.30;67.67;95049.34;5007301;28;20033;-77
2022/02/13 06:23:53;;;;;;;10.88;6.03;;;;;;;-1.21;67.39;95053.31;5004280;28;20033;-76
2022/02/13 06:26:18;;;;;;;9.93;5.78;;;;;;;-1.24;67.74;95049.31;5001999;28;20013;-77
2022/02/13 06:28:44;;;;;;;9.63;6.72;;;;;;;-1.21;67.39;95059.31;4999037;28;20508;-77
2022/02/13 06:31:12;;;;;;;8.10;6.25;;;;;;;-1.16;68.00;95054.28;5011538;28;20053;-77
2022/02/13 06:33:38;;;;;;;14.57;7.28;;;;;;;-1.30;69.01;95063.19;5002719;28;20740;-77
2022/02/13 06:36:03;;;;;;;12.68;5.55;;;;;;;-1.39;68.99;95056.63;5011382;28;20033;-77
2022/02/13 06:38:29;;;;;;;14.35;7.13;;;;;;;-1.30;68.97;95044.13;5005890;28;20029;-77
2022/02/13 06:40:54;;;;;;;11.68;5.57;;;;;;;-1.25;69.54;95052.13;5000762;28;20442;-77
2022/02/13 06:43:20;;;;;;;11.43;6.45;;;;;;;-1.22;70.30;95062.97;5005534;28;20478;-77
2022/02/13 06:45:45;;;;;;;11.32;7.70;;;;;;;-1.35;71.08;95057.81;5002211;28;20034;-77
2022/02/13 06:48:11;;;;;;;11.35;6.13;;;;;;;-1.36;71.47;95069.25;5007465;28;20072;-77
2022/02/13 06:50:36;;;;;;;13.00;7.65;;;;;;;-1.43;72.20;95060.66;5004526;28;20340;-77
2022/02/13 06:53:03;;;;;;;10.90;7.47;;;;;;;-1.43;72.80;95068.50;5008306;28;20041;-77
2022/02/13 06:55:28;;;;;;;11.05;6.85;;;;;;;-1.37;72.56;95067.66;4997470;28;20045;-76
2022/02/13 06:57:54;;;;;;;13.55;8.65;;;;;;;-1.53;73.74;95055.88;5005974;28;20052;-76
2022/02/13 07:00:20;;;;;;;12.70;7.32;;;;;;;-1.44;73.79;95079.94;5007801;28;20037;-76
2022/02/13 07:02:46;;;;;;;12.05;7.18;;;;;;;-1.45;74.18;95066.09;5007099;28;20047;-76
2022/02/13 07:05:12;;;;;;;10.80;6.78;;;;;;;-1.53;74.24;95055.88;5000449;28;20501;-77
2022/02/13 07:07:37;;;;;;;18.08;8.80;;;;;;;-1.46;74.17;95071.53;5003014;28;20037;-77
2022/02/13 07:10:11;;;;;;;7.32;5.32;;;;;;;-1.61;75.13;95042.28;5004089;28;20341;-77
2022/02/13 07:12:38;;;;;;;12.65;6.60;;;;;;;-1.59;75.03;95025.41;5004484;28;20103;-77
2022/02/13 07:15:08;;;;;;;10.15;6.45;;;;;;;-1.58;75.90;95052.28;5003608;28;20026;-77
2022/02/13 07:17:37;;;;;;;10.25;6.53;;;;;;;-1.49;76.38;95062.28;5006768;28;20026;-77
2022/02/13 07:20:07;;;;;;;12.55;7.35;;;;;;;-1.67;76.98;95053.53;5016567;28;20069;-77
2022/02/13 07:22:32;;;;;;;13.40;7.80;;;;;;;-1.75;77.51;95032.91;5004706;28;20215;-77
2022/02/13 07:24:58;;;;;;;12.57;7.20;;;;;;;-1.51;77.44;95073.97;5001416;28;20037;-78
2022/02/13 07:27:23;;;;;;;13.68;7.63;;;;;;;-1.66;77.95;95060.38;5001091;28;20037;-77
2022/02/13 07:29:49;;;;;;;13.52;7.95;;;;;;;-1.63;78.34;95063.34;5003167;28;20120;-76
2022/02/13 07:32:14;;;;;;;15.25;8.45;;;;;;;-1.84;79.00;95048.78;5006584;28;20061;-76
2022/02/13 07:34:39;;;;;;;12.73;7.20;;;;;;;-1.81;79.48;95042.38;4998841;28;20038;-76
2022/02/13 07:37:05;;;;;;;17.83;9.77;;;;;;;-1.70;79.89;95067.78;5002371;28;20444;-76
2022/02/13 07:39:35;;;;;;;12.68;8.05;;;;;;;-1.87;79.95;95036.16;5005343;28;20064;-76
2022/02/13 07:42:03;;;;;;;17.13;10.10;;;;;;;-1.79;80.36;95055.19;5003878;28;20814;-76
2022/02/13 07:44:28;;;;;;;22.30;10.52;;;;;;;-1.96;80.86;95054.84;5021476;28;20547;-77
2022/02/13 07:46:54;;;;;;;22.77;11.52;;;;;;;-1.89;80.97;95064.25;5000044;28;20048;-77
2022/02/13 07:49:20;;;;;;;26.48;12.13;;;;;;;-1.90;81.32;95054.81;5013397;28;20184;-78
2022/02/13 07:51:46;;;;;;;16.38;9.98;;;;;;;-1.97;81.73;95064.47;5005202;28;20034;-77
2022/02/13 07:54:13;;;;;;;14.25;9.50;;;;;;;-2.02;82.00;95051.25;4998583;28;20503;-78
2022/02/13 07:56:38;;;;;;;16.13;10.52;;;;;;;-1.98;81.83;95057.66;5001191;28;20559;-77
2022/02/13 07:59:04;;;;;;;20.50;11.32;;;;;;;-2.20;81.50;95017.22;4996413;28;20346;-77
2022/02/13 08:01:30;;;;;;;21.20;11.15;;;;;;;-1.89;81.47;95040.78;5001309;28;20049;-77
2022/02/13 08:03:55;;;;;;;15.82;9.40;;;;;;;-1.74;81.45;95039.72;4999728;28;20034;-77
2022/02/13 08:06:21;;;;;;;16.00;8.60;;;;;;;-1.65;80.98;95057.53;5005556;28;20050;-77
2022/02/13 08:08:48;;;;;;;16.75;9.10;;;;;;;-1.70;80.41;95043.53;5000942;28;20062;-78
2022/02/13 08:11:15;;;;;;;17.25;9.10;;;;;;;-1.88;80.24;95042.38;4987576;28;20968;-77
2022/02/13 08:13:40;;;;;;;18.05;9.50;;;;;;;-1.82;79.83;95032.94;4975999;28;20034;-76
2022/02/13 08:16:06;;;;;;;15.93;8.13;;;;;;;-1.53;79.82;95057.69;4983550;28;20404;-77
2022/02/13 08:18:32;;;;;;;22.23;9.57;;;;;;;-1.66;79.05;95039.50;4986776;28;20151;-77
2022/02/13 08:20:57;;;;;;;17.40;9.10;;;;;;;-1.48;78.97;95048.25;4980157;28;20970;-77
2022/02/13 08:23:24;;;;;;;15.90;9.13;;;;;;;-1.44;78.98;95064.28;4982901;28;20026;-77
2022/02/13 08:25:51;;;;;;;15.40;9.38;;;;;;;-1.47;78.39;95054.25;4983443;28;20065;-77
2022/02/13 08:28:17;;;;;;;20.67;8.90;;;;;;;-1.40;78.57;95055.00;4985571;28;20615;-77
2022/02/13 08:30:43;;;;;;;15.80;9.60;;;;;;;-1.42;78.70;95046.63;4982998;28;20113;-76
2022/02/13 08:33:09;;;;;;;14.93;8.98;;;;;;;-1.39;78.02;95067.88;4982014;28;20030;-77
2022/02/13 08:35:35;;;;;;;13.38;7.95;;;;;;;-1.28;77.86;95052.56;4984136;28;20030;-77
2022/02/13 08:38:01;;;;;;;12.07;7.38;;;;;;;-1.08;77.28;95053.25;4982174;28;20049;-76
2022/02/13 08:40:28;;;;;;;13.77;7.70;;;;;;;-1.50;76.54;94994.66;4980470;28;20034;-77
2022/02/13 08:42:53;;;;;;;11.82;7.82;;;;;;;-1.18;76.56;95040.66;4981627;28;20053;-77
2022/02/13 08:45:19;;;;;;;11.27;6.97;;;;;;;-0.97;76.04;95061.19;4985448;28;20125;-77
2022/02/13 08:47:45;;;;;;;9.85;6.97;;;;;;;-1.12;74.92;95052.84;4977603;28;20029;-77
2022/02/13 08:50:10;;;;;;;11.88;7.40;;;;;;;-0.90;75.56;95049.91;4984939;28;20042;-77
2022/02/13 08:52:36;;;;;;;16.90;9.02;;;;;;;-0.81;74.71;95048.63;4982815;28;20037;-77
2022/02/13 08:55:02;;;;;;;14.93;7.68;;;;;;;-0.75;74.38;95045.19;4979216;28;20422;-77
2022/02/13 08:57:27;;;;;;;21.00;8.75;;;;;;;-0.69;74.13;95026.03;4984457;28;20818;-77
2022/02/13 08:59:52;;;;;;;24.23;11.07;;;;;;;-0.43;73.76;95045.94;4979682;28;20343;-77
2022/02/13 09:02:18;;;;;;;12.95;8.52;;;;;;;-0.55;72.36;95038.00;4986180;28;20025;-77
2022/02/13 09:04:43;;;;;;;13.75;7.88;;;;;;;-0.42;72.18;95030.03;4976348;28;20061;-76
2022/02/13 09:07:10;;;;;;;10.93;7.35;;;;;;;-0.25;71.73;95052.00;4981514;28;20568;-76
2022/02/13 09:09:35;;;;;;;10.65;7.72;;;;;;;-0.19;71.10;95051.13;4981631;28;20037;-77
2022/02/13 09:12:00;;;;;;;13.75;7.95;;;;;;;-0.45;71.28;95013.97;4976900;28;20025;-77
2022/02/13 09:14:26;;;;;;;11.93;7.93;;;;;;;-0.26;71.23;95039.13;4979134;28;20113;-77
2022/02/13 09:16:51;;;;;;;11.70;7.20;;;;;;;-0.18;70.46;95054.53;4979422;28;20504;-77
2022/02/13 09:19:19;;;;;;;10.15;7.25;;;;;;;-0.18;70.37;95028.38;4977224;28;20101;-78
2022/02/13 09:21:51;;;;;;;12.05;6.63;;;;;;;0.18;69.82;95054.56;4981770;28;20160;-77
2022/02/13 09:24:16;;;;;;;15.07;9.30;;;;;;;0.09;69.84;95049.84;4976830;28;20049;-77
2022/02/13 09:26:42;;;;;;;10.48;7.55;;;;;;;-0.17;70.90;95028.19;4974797;28;20338;-77
2022/02/13 09:29:07;;;;;;;19.15;9.23;;;;;;;-0.10;70.08;95046.44;4980369;28;20041;-77
2022/02/13 09:31:32;;;;;;;18.63;9.70;;;;;;;-0.09;70.11;95048.00;4975164;28;20052;-77
2022/02/13 09:33:58;;;;;;;11.50;7.05;;;;;;;-0.22;69.10;95038.47;4980619;28;20129;-77
2022/02/13 09:36:23;;;;;;;9.48;6.50;;;;;;;-0.11;68.38;95019.47;4978313;28;20484;-77
2022/02/13 09:38:49;;;;;;;14.30;8.75;;;;;;;-0.13;68.37;95034.56;4973846;28;20685;-77
2022/02/13 09:41:18;;;;;;;12.50;8.07;;;;;;;-0.20;68.76;95036.47;4977659;28;20038;-77
2022/02/13 09:43:44;;;;;;;11.40;7.32;;;;;;;-0.01;68.69;95026.81;4978423;28;20036;-77
2022/02/13 09:46:13;;;;;;;14.10;7.30;;;;;;;-0.09;67.23;95012.19;4977978;28;20045;-77
2022/02/13 09:48:38;;;;;;;11.32;7.63;;;;;;;0.17;67.16;95031.22;4974536;28;20050;-77
2022/02/13 09:51:04;;;;;;;15.60;7.80;;;;;;;0.00;66.47;95023.19;4983166;28;20042;-77
2022/02/13 09:53:34;;;;;;;16.27;7.10;;;;;;;0.05;65.96;95001.59;4975235;28;20029;-77
2022/02/13 09:56:00;;;;;;;13.57;6.95;;;;;;;0.12;65.46;95028.47;4966882;28;20038;-77
2022/02/13 09:58:26;;;;;;;8.98;6.05;;;;;;;-0.03;65.42;94992.22;4979740;28;20614;-77
2022/02/13 10:00:55;;;;;;;11.45;7.15;;;;;;;0.03;65.08;95008.84;4985146;28;20132;-77
2022/02/13 10:03:24;;;;;;;7.43;6.07;;;;;;;0.15;65.11;95017.59;4979770;28;20125;-77
2022/02/13 10:05:51;;;;;;;13.38;8.70;;;;;;;0.22;64.94;94986.91;4974831;28;20048;-77
2022/02/13 10:08:39;;;;;;;14.13;6.70;;;;;;;0.35;64.47;95012.91;5003075;28;20048;-77
2022/02/13 10:11:29;;;;;;;13.32;7.55;;;;;;;0.48;63.67;94996.25;5001149;28;20040;-76
2022/02/13 10:13:58;;;;;;;14.38;7.57;;;;;;;0.48;63.30;94996.25;5021120;28;20132;-77
2022/02/13 10:16:26;;;;;;;11.43;7.32;;;;;;;0.36;63.14;94978.66;4994665;28;20125;-78
2022/02/13 10:19:01;;;;;;;14.80;6.75;;;;;;;0.42;63.38;94970.94;5017643;28;20045;-77
2022/02/13 10:21:38;;;;;;;12.38;7.43;;;;;;;0.62;62.53;94987.19;4998833;28;20037;-77
2022/02/13 10:24:29;;;;;;;11.98;8.75;;;;;;;0.43;62.99;94983.03;4999476;28;20053;-77
2022/02/13 10:26:57;;;;;;;9.85;6.03;;;;;;;0.35;63.08;94965.78;4995314;28;20045;-77
2022/02/13 10:29:32;;;;;;;12.55;8.20;;;;;;;0.53;63.10;94980.69;5003196;28;20119;-76
2022/02/13 10:32:18;;;;;;;14.38;8.38;;;;;;;0.60;62.86;94969.06;5008603;28;20039;-77
2022/02/13 10:35:08;;;;;;;13.25;7.53;;;;;;;0.46;62.97;94966.88;5000628;28;20041;-76
2022/02/13 10:37:54;;;;;;;12.23;7.10;;;;;;;0.51;62.82;94959.16;4998436;28;20078;-77
2022/02/13 10:40:25;;;;;;;14.40;7.82;;;;;;;0.78;62.77;94955.16;5008074;28;20321;-77
2022/02/13 10:43:04;;;;;;;19.23;8.63;;;;;;;0.56;61.95;94941.75;5000390;28;20171;-77
2022/02/13 10:45:31;;;;;;;14.15;7.72;;;;;;;0.62;61.77;94942.69;5006549;28;20045;-76
2022/02/13 10:48:00;;;;;;;14.35;6.68;;;;;;;0.50;61.53;94926.94;5003357;28;20026;-77
2022/02/13 10:50:28;;;;;;;12.57;7.45;;;;;;;0.54;61.81;94941.19;5002897;28;20029;-77
2022/02/13 10:52:58;;;;;;;13.57;8.00;;;;;;;0.62;61.57;94935.63;5003157;28;20034;-77
2022/02/13 10:55:25;;;;;;;9.93;6.72;;;;;;;0.74;61.68;94907.63;4993037;28;20298;-77
2022/02/13 10:57:51;;;;;;;12.38;6.88;;;;;;;0.84;60.52;94928.03;5004197;28;20077;-77
2022/02/13 11:00:18;;;;;;;15.32;7.53;;;;;;;0.72;60.65;94917.56;5010189;28;20154;-77
2022/02/13 11:02:48;;;;;;;9.15;5.43;;;;;;;0.82;60.00;94924.06;4998631;28;20032;-77
2022/02/13 11:05:14;;;;;;;17.10;7.50;;;;;;;0.80;60.15;94921.66;5005061;28;20046;-77
2022/02/13 11:07:47;;;;;;;9.68;6.43;;;;;;;0.97;59.71;94911.34;5004758;28;20041;-77
2022/02/13 11:10:17;;;;;;;15.27;7.22;;;;;;;1.07;59.97;94906.34;4998728;28;20033;-78
2022/02/13 11:12:44;;;;;;;10.73;7.15;;;;;;;1.02;59.44;94877.41;5002920;28;20038;-77
2022/02/13 11:15:17;;;;;;;11.02;6.75;;;;;;;0.61;59.50;94823.28;4991847;28;20033;-77
2022/02/13 11:17:46;;;;;;;10.52;7.03;;;;;;;0.95;59.75;94882.72;5000215;28;20010;-78
2022/02/13 11:20:13;;;;;;;17.88;7.63;;;;;;;1.07;59.46;94888.00;4997408;28;20056;-77
2022/02/13 11:22:39;;;;;;;10.05;7.00;;;;;;;1.17;59.15;94875.13;4984189;28;20581;-77
2022/02/13 11:25:06;;;;;;;10.23;6.50;;;;;;;1.18;58.58;94869.63;5007749;28;20306;-77